sensor_id;sensor_type;location;lat;lon;timestamp;pressure;altitude;pressure_sealevel;temperature;humidity
60433;BME280;46286;48.098;11.590;2023-04-09T00:00:44;96093.72;;;1.38;100.00
60433;BME280;46286;48.098;11.590;2023-04-09T00:03:29;96094.09;;;1.35;100.00
60433;BME280;46286;48.098;11.590;2023-04-09T00:05:55;96095.72;;;1.36;100.00
60433;BME280;46286;48.098;11.590;2023-04-09T00:08:20;96083.38;;;1.38;100.00
60433;BME280;46286;48.098;11.590;2023-04-09T00:10:48;96085.34;;;1.49;100.00
60433;BME280;46286;48.098;11.590;2023-04-09T00:13:14;96079.56;;;1.47;100.00
60433;BME280;46286;48.098;11.590;2023-04-09T00:15:40;96081.34;;;1.40;100.00
60433;BME280;46286;48.098;11.590;2023-04-09T00:18:06;96081.34;;;1.40;100.00
60433;BME280;46286;48.098;11.590;2023-04-09T00:20:31;96078.97;;;1.45;100.00
60433;BME280;46286;48.098;11.590;2023-04-09T00:22:57;96077.56;;;1.49;100.00
60433;BME280;46286;48.098;11.590;2023-04-09T00:25:23;96077.78;;;1.54;100.00
60433;BME280;46286;48.098;11.590;2023-04-09T00:27:48;96077.00;;;1.54;100.00
60433;BME280;46286;48.098;11.590;2023-04-09T00:30:14;96070.59;;;1.56;100.00
60433;BME280;46286;48.098;11.590;2023-04-09T00:32:41;96075.38;;;1.53;100.00
60433;BME280;46286;48.098;11.590;2023-04-09T00:35:07;96072.78;;;1.46;100.00
60433;BME280;46286;48.098;11.590;2023-04-09T00:37:32;96068.97;;;1.42;100.00
60433;BME280;46286;48.098;11.590;2023-04-09T00:39:58;96074.78;;;1.44;100.00
60433;BME280;46286;48.098;11.590;2023-04-09T00:42:23;96069.41;;;1.46;100.00
60433;BME280;46286;48.098;11.590;2023-04-09T00:44:50;96070.59;;;1.50;100.00
60433;BME280;46286;48.098;11.590;2023-04-09T00:47:16;96073.00;;;1.51;100.00
60433;BME280;46286;48.098;11.590;2023-04-09T00:49:41;96069.78;;;1.49;100.00
60433;BME280;46286;48.098;11.590;2023-04-09T00:52:09;96069.19;;;1.47;100.00
60433;BME280;46286;48.098;11.590;2023-04-09T00:54:35;96074.59;;;1.46;100.00
60433;BME280;46286;48.098;11.590;2023-04-09T00:57:00;96070.19;;;1.46;100.00
60433;BME280;46286;48.098;11.590;2023-04-09T00:59:27;96069.00;;;1.55;100.00
60433;BME280;46286;48.098;11.590;2023-04-09T01:01:53;96065.03;;;1.60;100.00
60433;BME280;46286;48.098;11.590;2023-04-09T01:04:19;96076.59;;;1.57;100.00
60433;BME280;46286;48.098;11.590;2023-04-09T01:06:58;96066.59;;;1.61;100.00
60433;BME280;46286;48.098;11.590;2023-04-09T01:09:30;96072.41;;;1.69;100.00
60433;BME280;46286;48.098;11.590;2023-04-09T01:17:23;96071.00;;;1.73;100.00
60433;BME280;46286;48.098;11.590;2023-04-09T01:20:00;96067.00;;;1.71;100.00
60433;BME280;46286;48.098;11.590;2023-04-09T01:22:48;96069.41;;;1.66;100.00
60433;BME280;46286;48.098;11.590;2023-04-09T01:25:44;96061.81;;;1.71;100.00
60433;BME280;46286;48.098;11.590;2023-04-09T01:28:26;96076.22;;;1.67;100.00
60433;BME280;46286;48.098;11.590;2023-04-09T01:30:56;96069.22;;;1.67;100.00
60433;BME280;46286;48.098;11.590;2023-04-09T01:33:24;96068.81;;;1.64;100.00
60433;BME280;46286;48.098;11.590;2023-04-09T01:35:50;96062.84;;;1.70;100.00
60433;BME280;46286;48.098;11.590;2023-04-09T01:38:18;96065.81;;;1.73;100.00
60433;BME280;46286;48.098;11.590;2023-04-09T01:40:45;96073.41;;;1.68;100.00
60433;BME280;46286;48.098;11.590;2023-04-09T01:43:11;96065.84;;;1.67;100.00
60433;BME280;46286;48.098;11.590;2023-04-09T01:45:39;96063.81;;;1.69;100.00
60433;BME280;46286;48.098;11.590;2023-04-09T01:48:05;96073.81;;;1.72;100.00
60433;BME280;46286;48.098;11.590;2023-04-09T01:50:32;96067.41;;;1.68;100.00
60433;BME280;46286;48.098;11.590;2023-04-09T01:52:59;96063.81;;;1.69;100.00
60433;BME280;46286;48.098;11.590;2023-04-09T01:55:26;96069.00;;;1.69;100.00
60433;BME280;46286;48.098;11.590;2023-04-09T01:57:51;96075.81;;;1.70;100.00
60433;BME280;46286;48.098;11.590;2023-04-09T02:00:17;96066.59;;;1.61;100.00
60433;BME280;46286;48.098;11.590;2023-04-09T02:03:10;96064.22;;;1.66;100.00
60433;BME280;46286;48.098;11.590;2023-04-09T02:05:51;96074.59;;;1.66;100.00
60433;BME280;46286;48.098;11.590;2023-04-09T02:08:19;96068.63;;;1.59;100.00
60433;BME280;46286;48.098;11.590;2023-04-09T02:10:49;96071.78;;;1.61;100.00
60433;BME280;46286;48.098;11.590;2023-04-09T02:13:19;96071.78;;;1.61;100.00
60433;BME280;46286;48.098;11.590;2023-04-09T02:15:46;96075.41;;;1.60;100.00
60433;BME280;46286;48.098;11.590;2023-04-09T02:18:26;96063.81;;;1.55;100.00
60433;BME280;46286;48.098;11.590;2023-04-09T02:20:56;96073.00;;;1.51;100.00
60433;BME280;46286;48.098;11.590;2023-04-09T02:23:22;96066.59;;;1.47;100.00
60433;BME280;46286;48.098;11.590;2023-04-09T02:25:48;96066.19;;;1.50;100.00
60433;BME280;46286;48.098;11.590;2023-04-09T02:28:14;96064.22;;;1.52;100.00
60433;BME280;46286;48.098;11.590;2023-04-09T02:30:40;96061.00;;;1.50;100.00
60433;BME280;46286;48.098;11.590;2023-04-09T02:33:05;96066.19;;;1.50;100.00
60433;BME280;46286;48.098;11.590;2023-04-09T02:35:31;96068.41;;;1.53;100.00
60433;BME280;46286;48.098;11.590;2023-04-09T02:37:57;96061.81;;;1.58;100.00
60433;BME280;46286;48.098;11.590;2023-04-09T02:40:22;96059.22;;;1.58;100.00
60433;BME280;46286;48.098;11.590;2023-04-09T02:42:48;96065.81;;;1.60;100.00
60433;BME280;46286;48.098;11.590;2023-04-09T02:45:13;96056.63;;;1.58;100.00
60433;BME280;46286;48.098;11.590;2023-04-09T02:47:39;96061.03;;;1.57;100.00
60433;BME280;46286;48.098;11.590;2023-04-09T02:50:05;96062.63;;;1.65;100.00
60433;BME280;46286;48.098;11.590;2023-04-09T02:52:31;96059.81;;;1.66;100.00
60433;BME280;46286;48.098;11.590;2023-04-09T02:54:56;96058.25;;;1.65;100.00
60433;BME280;46286;48.098;11.590;2023-04-09T02:57:22;96055.03;;;1.56;100.00
60433;BME280;46286;48.098;11.590;2023-04-09T02:59:47;96046.66;;;1.54;100.00
60433;BME280;46286;48.098;11.590;2023-04-09T03:02:13;96052.44;;;1.56;100.00
60433;BME280;46286;48.098;11.590;2023-04-09T03:04:38;96053.03;;;1.59;100.00
60433;BME280;46286;48.098;11.590;2023-04-09T03:07:04;96052.66;;;1.62;100.00
60433;BME280;46286;48.098;11.590;2023-04-09T03:09:29;96054.25;;;1.63;100.00
60433;BME280;46286;48.098;11.590;2023-04-09T03:11:55;96047.66;;;1.47;100.00
60433;BME280;46286;48.098;11.590;2023-04-09T03:14:22;96043.03;;;1.42;100.00
60433;BME280;46286;48.098;11.590;2023-04-09T03:16:48;96047.44;;;1.42;100.00
60433;BME280;46286;48.098;11.590;2023-04-09T03:19:13;96041.66;;;1.40;100.00
60433;BME280;46286;48.098;11.590;2023-04-09T03:21:39;96038.66;;;1.36;100.00
60433;BME280;46286;48.098;11.590;2023-04-09T03:24:05;96033.88;;;1.46;100.00
60433;BME280;46286;48.098;11.590;2023-04-09T03:26:31;96035.47;;;1.47;100.00
60433;BME280;46286;48.098;11.590;2023-04-09T03:29:04;96036.69;;;1.51;100.00
60433;BME280;46286;48.098;11.590;2023-04-09T03:31:30;96036.28;;;1.54;100.00
60433;BME280;46286;48.098;11.590;2023-04-09T03:33:56;96043.47;;;1.52;100.00
60433;BME280;46286;48.098;11.590;2023-04-09T03:36:22;96040.88;;;1.52;100.00
60433;BME280;46286;48.098;11.590;2023-04-09T03:38:47;96055.25;;;1.62;100.00
60433;BME280;46286;48.098;11.590;2023-04-09T03:41:13;96054.25;;;1.56;100.00
60433;BME280;46286;48.098;11.590;2023-04-09T03:43:38;96059.44;;;1.63;100.00
60433;BME280;46286;48.098;11.590;2023-04-09T03:46:11;96061.00;;;1.64;100.00
60433;BME280;46286;48.098;11.590;2023-04-09T03:48:37;96059.41;;;1.49;100.00
60433;BME280;46286;48.098;11.590;2023-04-09T03:51:03;96061.41;;;1.41;100.00
60433;BME280;46286;48.098;11.590;2023-04-09T03:53:28;96057.38;;;1.25;100.00
60433;BME280;46286;48.098;11.590;2023-04-09T03:55:53;96070.53;;;1.16;100.00
60433;BME280;46286;48.098;11.590;2023-04-09T03:58:19;96071.31;;;1.10;100.00
60433;BME280;46286;48.098;11.590;2023-04-09T04:00:45;96068.47;;;0.92;100.00
60433;BME280;46286;48.098;11.590;2023-04-09T04:03:10;96069.63;;;0.82;100.00
60433;BME280;46286;48.098;11.590;2023-04-09T04:05:36;96074.38;;;0.79;100.00
60433;BME280;46286;48.098;11.590;2023-04-09T04:08:01;96071.56;;;0.67;100.00
60433;BME280;46286;48.098;11.590;2023-04-09T04:10:27;96075.94;;;0.66;100.00
60433;BME280;46286;48.098;11.590;2023-04-09T04:12:52;96083.09;;;0.58;100.00
60433;BME280;46286;48.098;11.590;2023-04-09T04:15:18;96076.69;;;0.54;100.00
60433;BME280;46286;48.098;11.590;2023-04-09T04:17:44;96078.19;;;0.41;100.00
60433;BME280;46286;48.098;11.590;2023-04-09T04:20:10;96082.94;;;0.31;100.00
60433;BME280;46286;48.098;11.590;2023-04-09T04:22:36;96076.91;;;0.24;100.00
60433;BME280;46286;48.098;11.590;2023-04-09T04:25:03;96088.50;;;0.28;100.00
60433;BME280;46286;48.098;11.590;2023-04-09T04:27:28;96079.63;;;0.15;100.00
60433;BME280;46286;48.098;11.590;2023-04-09T04:29:56;96095.56;;;0.12;100.00
60433;BME280;46286;48.098;11.590;2023-04-09T04:32:23;96089.25;;;0.22;100.00
60433;BME280;46286;48.098;11.590;2023-04-09T04:34:48;96088.63;;;0.20;100.00
60433;BME280;46286;48.098;11.590;2023-04-09T04:37:14;96085.66;;;0.23;100.00
60433;BME280;46286;48.098;11.590;2023-04-09T04:39:40;96082.88;;;0.24;100.00
60433;BME280;46286;48.098;11.590;2023-04-09T04:42:05;96095.41;;;0.21;100.00
60433;BME280;46286;48.098;11.590;2023-04-09T04:44:31;96085.44;;;0.17;100.00
60433;BME280;46286;48.098;11.590;2023-04-09T04:46:56;96089.72;;;0.32;100.00
60433;BME280;46286;48.098;11.590;2023-04-09T04:49:22;96090.13;;;0.36;100.00
60433;BME280;46286;48.098;11.590;2023-04-09T04:51:47;96082.69;;;0.26;100.00
60433;BME280;46286;48.098;11.590;2023-04-09T04:54:13;96076.91;;;0.24;100.00
60433;BME280;46286;48.098;11.590;2023-04-09T04:56:39;96073.41;;;0.38;100.00
60433;BME280;46286;48.098;11.590;2023-04-09T04:59:04;96065.41;;;0.33;100.00
60433;BME280;46286;48.098;11.590;2023-04-09T05:01:30;96060.22;;;0.33;100.00
60433;BME280;46286;48.098;11.590;2023-04-09T05:03:55;96061.44;;;0.37;100.00
60433;BME280;46286;48.098;11.590;2023-04-09T05:06:21;96087.78;;;0.47;100.00
60433;BME280;46286;48.098;11.590;2023-04-09T05:08:47;96101.41;;;0.63;100.00
60433;BME280;46286;48.098;11.590;2023-04-09T05:11:12;96106.69;;;0.76;100.00
60433;BME280;46286;48.098;11.590;2023-04-09T05:13:39;96096.38;;;0.55;100.00
60433;BME280;46286;48.098;11.590;2023-04-09T05:16:05;96101.81;;;0.60;100.00
60433;BME280;46286;48.098;11.590;2023-04-09T05:18:31;96100.97;;;0.52;100.00
60433;BME280;46286;48.098;11.590;2023-04-09T05:20:57;96107.75;;;0.54;100.00
60433;BME280;46286;48.098;11.590;2023-04-09T05:23:22;96108.50;;;0.47;100.00
60433;BME280;46286;48.098;11.590;2023-04-09T05:25:48;96108.50;;;0.47;100.00
60433;BME280;46286;48.098;11.590;2023-04-09T05:28:14;96106.69;;;0.41;100.00
60433;BME280;46286;48.098;11.590;2023-04-09T05:30:45;96110.50;;;0.45;100.00
60433;BME280;46286;48.098;11.590;2023-04-09T05:33:11;96110.50;;;0.45;100.00
60433;BME280;46286;48.098;11.590;2023-04-09T05:35:39;96115.09;;;0.43;100.00
60433;BME280;46286;48.098;11.590;2023-04-09T05:38:05;96119.25;;;0.44;100.00
60433;BME280;46286;48.098;11.590;2023-04-09T05:40:31;96110.56;;;0.59;100.00
60433;BME280;46286;48.098;11.590;2023-04-09T05:42:56;96111.78;;;0.63;100.00
60433;BME280;46286;48.098;11.590;2023-04-09T05:45:22;96109.88;;;0.78;100.00
60433;BME280;46286;48.098;11.590;2023-04-09T05:47:47;96114.63;;;0.75;100.00
60433;BME280;46286;48.098;11.590;2023-04-09T05:50:13;96107.53;;;0.83;100.00
60433;BME280;46286;48.098;11.590;2023-04-09T05:52:39;96110.97;;;1.04;100.00
60433;BME280;46286;48.098;11.590;2023-04-09T05:55:04;96114.41;;;1.11;100.00
60433;BME280;46286;48.098;11.590;2023-04-09T05:57:31;96108.00;;;1.07;100.00
60433;BME280;46286;48.098;11.590;2023-04-09T05:59:56;96110.41;;;1.15;100.00
60433;BME280;46286;48.098;11.590;2023-04-09T06:02:23;96110.44;;;1.29;100.00
60433;BME280;46286;48.098;11.590;2023-04-09T06:04:49;96107.28;;;1.40;100.00
60433;BME280;46286;48.098;11.590;2023-04-09T06:07:15;96102.53;;;1.57;100.00
60433;BME280;46286;48.098;11.590;2023-04-09T06:09:40;96103.72;;;1.68;100.00
60433;BME280;46286;48.098;11.590;2023-04-09T06:12:08;96086.97;;;1.84;100.00
60433;BME280;46286;48.098;11.590;2023-04-09T06:14:34;96105.56;;;1.87;100.00
60433;BME280;46286;48.098;11.590;2023-04-09T06:17:00;96116.34;;;1.84;100.00
60433;BME280;46286;48.098;11.590;2023-04-09T06:19:25;96115.72;;;1.82;100.00
60433;BME280;46286;48.098;11.590;2023-04-09T06:21:51;96126.91;;;1.89;100.00
60433;BME280;46286;48.098;11.590;2023-04-09T06:24:16;96118.53;;;1.94;100.00
60433;BME280;46286;48.098;11.590;2023-04-09T06:26:42;96125.72;;;1.99;100.00
60433;BME280;46286;48.098;11.590;2023-04-09T06:29:07;96123.75;;;2.14;100.00
60433;BME280;46286;48.098;11.590;2023-04-09T06:31:33;96127.31;;;2.33;100.00
60433;BME280;46286;48.098;11.590;2023-04-09T06:33:59;96128.47;;;2.44;100.00
60433;BME280;46286;48.098;11.590;2023-04-09T06:36:24;96135.66;;;2.55;100.00
60433;BME280;46286;48.098;11.590;2023-04-09T06:38:51;96122.47;;;2.57;100.00
60433;BME280;46286;48.098;11.590;2023-04-09T06:41:21;96127.28;;;2.53;100.00
60433;BME280;46286;48.098;11.590;2023-04-09T06:43:47;96137.22;;;2.70;100.00
60433;BME280;46286;48.098;11.590;2023-04-09T06:46:12;96128.25;;;2.66;100.00
60433;BME280;46286;48.098;11.590;2023-04-09T06:48:41;96125.25;;;2.69;100.00
60433;BME280;46286;48.098;11.590;2023-04-09T06:51:09;96121.25;;;2.59;100.00
60433;BME280;46286;48.098;11.590;2023-04-09T06:53:36;96131.25;;;2.63;100.00
60433;BME280;46286;48.098;11.590;2023-04-09T06:56:02;96135.25;;;2.72;100.00
60433;BME280;46286;48.098;11.590;2023-04-09T06:58:28;96125.13;;;3.09;100.00
60433;BME280;46286;48.098;11.590;2023-04-09T07:00:55;96133.50;;;3.11;100.00
60433;BME280;46286;48.098;11.590;2023-04-09T07:03:20;96131.78;;;3.37;100.00
60433;BME280;46286;48.098;11.590;2023-04-09T07:05:46;96137.84;;;3.31;100.00
60433;BME280;46286;48.098;11.590;2023-04-09T07:08:13;96130.06;;;3.24;100.00
60433;BME280;46286;48.098;11.590;2023-04-09T07:10:39;96144.91;;;3.55;100.00
60433;BME280;46286;48.098;11.590;2023-04-09T07:13:05;96140.38;;;3.76;100.00
60433;BME280;46286;48.098;11.590;2023-04-09T07:15:31;96135.41;;;3.99;100.00
60433;BME280;46286;48.098;11.590;2023-04-09T07:17:57;96141.16;;;3.76;100.00
60433;BME280;46286;48.098;11.590;2023-04-09T07:20:23;96142.06;;;3.63;100.00
60433;BME280;46286;48.098;11.590;2023-04-09T07:22:48;96139.72;;;3.55;100.00
60433;BME280;46286;48.098;11.590;2023-04-09T07:25:15;96144.84;;;3.62;100.00
60433;BME280;46286;48.098;11.590;2023-04-09T07:27:40;96137.25;;;3.60;100.00
60433;BME280;46286;48.098;11.590;2023-04-09T07:30:08;96140.47;;;3.62;100.00
60433;BME280;46286;48.098;11.590;2023-04-09T07:32:35;96137.75;;;4.08;100.00
60433;BME280;46286;48.098;11.590;2023-04-09T07:35:02;96140.69;;;3.86;100.00
60433;BME280;46286;48.098;11.590;2023-04-09T07:37:29;96136.97;;;4.07;100.00
60433;BME280;46286;48.098;11.590;2023-04-09T07:39:55;96142.28;;;3.94;100.00
60433;BME280;46286;48.098;11.590;2023-04-09T07:42:21;96140.63;;;3.99;100.00
60433;BME280;46286;48.098;11.590;2023-04-09T07:44:46;96136.16;;;4.07;100.00
60433;BME280;46286;48.098;11.590;2023-04-09T07:47:12;96139.97;;;4.29;100.00
60433;BME280;46286;48.098;11.590;2023-04-09T07:49:38;96138.16;;;4.55;100.00
60433;BME280;46286;48.098;11.590;2023-04-09T07:52:04;96137.41;;;4.48;100.00
60433;BME280;46286;48.098;11.590;2023-04-09T07:54:31;96142.75;;;4.34;100.00
60433;BME280;46286;48.098;11.590;2023-04-09T07:56:57;96143.09;;;4.82;100.00
60433;BME280;46286;48.098;11.590;2023-04-09T07:59:23;96141.44;;;4.88;100.00
60433;BME280;46286;48.098;11.590;2023-04-09T08:01:49;96137.88;;;4.82;100.00
60433;BME280;46286;48.098;11.590;2023-04-09T08:04:15;96137.44;;;4.66;100.00
60433;BME280;46286;48.098;11.590;2023-04-09T08:06:41;96147.44;;;4.88;100.00
60433;BME280;46286;48.098;11.590;2023-04-09T08:09:06;96151.94;;;4.99;100.00
60433;BME280;46286;48.098;11.590;2023-04-09T08:11:32;96146.00;;;5.11;100.00
60433;BME280;46286;48.098;11.590;2023-04-09T08:13:58;96141.50;;;5.18;100.00
60433;BME280;46286;48.098;11.590;2023-04-09T08:16:27;96145.31;;;5.34;100.00
60433;BME280;46286;48.098;11.590;2023-04-09T08:18:55;96147.91;;;5.52;100.00
60433;BME280;46286;48.098;11.590;2023-04-09T08:21:20;96146.47;;;5.68;100.00
60433;BME280;46286;48.098;11.590;2023-04-09T08:23:46;96146.53;;;5.31;100.00
60433;BME280;46286;48.098;11.590;2023-04-09T08:26:12;96144.34;;;5.47;100.00
60433;BME280;46286;48.098;11.590;2023-04-09T08:28:37;96156.47;;;5.71;100.00
60433;BME280;46286;48.098;11.590;2023-04-09T08:31:03;96152.84;;;5.72;100.00
60433;BME280;46286;48.098;11.590;2023-04-09T08:33:28;96146.63;;;6.16;100.00
60433;BME280;46286;48.098;11.590;2023-04-09T08:35:55;96147.06;;;6.13;100.00
60433;BME280;46286;48.098;11.590;2023-04-09T08:38:20;96153.81;;;5.90;100.00
60433;BME280;46286;48.098;11.590;2023-04-09T08:40:46;96153.00;;;6.20;100.00
60433;BME280;46286;48.098;11.590;2023-04-09T08:43:14;96145.28;;;6.25;100.00
60433;BME280;46286;48.098;11.590;2023-04-09T08:45:40;96148.81;;;6.31;100.00
60433;BME280;46286;48.098;11.590;2023-04-09T08:48:08;96148.44;;;6.27;100.00
60433;BME280;46286;48.098;11.590;2023-04-09T08:50:34;96144.38;;;6.19;100.00
60433;BME280;46286;48.098;11.590;2023-04-09T08:53:02;96144.00;;;6.28;100.00
60433;BME280;46286;48.098;11.590;2023-04-09T08:55:27;96149.69;;;6.24;100.00
60433;BME280;46286;48.098;11.590;2023-04-09T08:57:53;96160.47;;;6.04;100.00
60433;BME280;46286;48.098;11.590;2023-04-09T09:00:19;96154.81;;;6.31;100.00
60433;BME280;46286;48.098;11.590;2023-04-09T09:03:05;96161.19;;;6.35;100.00
60433;BME280;46286;48.098;11.590;2023-04-09T09:05:36;96160.31;;;6.65;100.00
60433;BME280;46286;48.098;11.590;2023-04-09T09:08:02;96156.19;;;6.81;100.00
60433;BME280;46286;48.098;11.590;2023-04-09T09:10:46;96162.09;;;7.00;100.00
60433;BME280;46286;48.098;11.590;2023-04-09T09:13:23;96160.47;;;7.23;100.00
60433;BME280;46286;48.098;11.590;2023-04-09T09:15:54;96160.19;;;7.36;100.00
60433;BME280;46286;48.098;11.590;2023-04-09T09:18:40;96165.03;;;6.92;100.00
60433;BME280;46286;48.098;11.590;2023-04-09T09:21:09;96160.25;;;7.01;100.00
60433;BME280;46286;48.098;11.590;2023-04-09T09:23:35;96156.75;;;7.07;100.00
60433;BME280;46286;48.098;11.590;2023-04-09T09:26:28;96156.66;;;6.90;100.00
60433;BME280;46286;48.098;11.590;2023-04-09T09:28:55;96157.00;;;6.82;100.00
60433;BME280;46286;48.098;11.590;2023-04-09T09:31:23;96169.84;;;6.71;100.00
60433;BME280;46286;48.098;11.590;2023-04-09T09:33:50;96164.06;;;6.81;100.00
60433;BME280;46286;48.098;11.590;2023-04-09T09:36:33;96165.72;;;6.99;100.00
60433;BME280;46286;48.098;11.590;2023-04-09T09:39:00;96164.00;;;7.05;100.00
60433;BME280;46286;48.098;11.590;2023-04-09T09:41:34;96161.28;;;7.11;100.00
60433;BME280;46286;48.098;11.590;2023-04-09T09:44:00;96158.59;;;7.35;100.00
60433;BME280;46286;48.098;11.590;2023-04-09T09:46:26;96159.53;;;7.87;100.00
60433;BME280;46286;48.098;11.590;2023-04-09T09:48:52;96149.88;;;8.38;100.00
60433;BME280;46286;48.098;11.590;2023-04-09T09:51:18;96151.78;;;8.60;100.00
60433;BME280;46286;48.098;11.590;2023-04-09T09:53:49;96159.59;;;8.55;100.00
60433;BME280;46286;48.098;11.590;2023-04-09T09:56:18;96151.13;;;8.87;100.00
60433;BME280;46286;48.098;11.590;2023-04-09T09:58:57;96152.16;;;9.08;100.00
60433;BME280;46286;48.098;11.590;2023-04-09T10:01:26;96157.19;;;8.70;100.00
60433;BME280;46286;48.098;11.590;2023-04-09T10:03:52;96156.22;;;8.42;100.00
60433;BME280;46286;48.098;11.590;2023-04-09T10:06:20;96162.38;;;9.04;100.00
60433;BME280;46286;48.098;11.590;2023-04-09T10:08:48;96162.16;;;8.89;100.00
60433;BME280;46286;48.098;11.590;2023-04-09T10:11:15;96158.09;;;9.42;100.00
60433;BME280;46286;48.098;11.590;2023-04-09T10:13:50;96158.19;;;9.25;100.00
60433;BME280;46286;48.098;11.590;2023-04-09T10:16:17;96146.31;;;9.23;100.00
60433;BME280;46286;48.098;11.590;2023-04-09T10:18:43;96159.59;;;9.60;100.00
60433;BME280;46286;48.098;11.590;2023-04-09T10:21:27;96153.94;;;9.46;100.00
60433;BME280;46286;48.098;11.590;2023-04-09T10:23:55;96148.56;;;9.36;100.00
60433;BME280;46286;48.098;11.590;2023-04-09T10:26:23;96150.47;;;9.68;100.00
60433;BME280;46286;48.098;11.590;2023-04-09T10:29:06;96153.31;;;10.48;100.00
60433;BME280;46286;48.098;11.590;2023-04-09T10:32:04;96157.50;;;9.84;100.00
60433;BME280;46286;48.098;11.590;2023-04-09T10:34:35;96154.41;;;9.93;100.00
60433;BME280;46286;48.098;11.590;2023-04-09T10:37:00;96157.97;;;9.32;100.00
60433;BME280;46286;48.098;11.590;2023-04-09T10:39:29;96155.31;;;9.27;100.00
60433;BME280;46286;48.098;11.590;2023-04-09T10:41:58;96152.47;;;9.11;100.00
60433;BME280;46286;48.098;11.590;2023-04-09T10:44:25;96150.94;;;9.60;100.00
60433;BME280;46286;48.098;11.590;2023-04-09T10:46:54;96150.47;;;9.68;100.00
60433;BME280;46286;48.098;11.590;2023-04-09T10:49:25;96149.97;;;9.71;100.00
60433;BME280;46286;48.098;11.590;2023-04-09T10:52:10;96150.13;;;9.86;100.00
60433;BME280;46286;48.098;11.590;2023-04-09T10:54:49;96148.25;;;9.54;100.00
60433;BME280;46286;48.098;11.590;2023-04-09T10:57:17;96149.59;;;9.84;100.00
60433;BME280;46286;48.098;11.590;2023-04-09T10:59:53;96148.97;;;10.32;100.00
60433;BME280;46286;48.098;11.590;2023-04-09T11:05:27;96156.13;;;10.09;100.00
60433;BME280;46286;48.098;11.590;2023-04-09T11:08:02;96148.00;;;9.12;100.00
60433;BME280;46286;48.098;11.590;2023-04-09T11:10:30;96141.06;;;9.23;100.00
60433;BME280;46286;48.098;11.590;2023-04-09T11:12:55;96141.25;;;8.94;100.00
60433;BME280;46286;48.098;11.590;2023-04-09T11:15:21;96151.00;;;9.21;100.00
60433;BME280;46286;48.098;11.590;2023-04-09T11:17:47;96136.16;;;9.09;100.00
60433;BME280;46286;48.098;11.590;2023-04-09T11:20:16;96137.81;;;9.60;100.00
60433;BME280;46286;48.098;11.590;2023-04-09T11:22:41;96133.47;;;10.73;100.00
60433;BME280;46286;48.098;11.590;2023-04-09T11:25:07;96133.34;;;10.52;99.99
60433;BME280;46286;48.098;11.590;2023-04-09T11:27:37;96141.88;;;10.00;100.00
60433;BME280;46286;48.098;11.590;2023-04-09T11:30:04;96136.19;;;10.13;100.00
60433;BME280;46286;48.098;11.590;2023-04-09T11:32:30;96139.59;;;9.81;100.00
60433;BME280;46286;48.098;11.590;2023-04-09T11:34:56;96135.22;;;9.65;100.00
60433;BME280;46286;48.098;11.590;2023-04-09T11:37:22;96134.00;;;9.50;99.73
60433;BME280;46286;48.098;11.590;2023-04-09T11:39:48;96136.72;;;9.56;94.87
60433;BME280;46286;48.098;11.590;2023-04-09T11:42:18;96134.16;;;9.16;99.58
60433;BME280;46286;48.098;11.590;2023-04-09T11:44:44;96145.19;;;8.96;100.00
60433;BME280;46286;48.098;11.590;2023-04-09T11:47:12;96142.34;;;8.98;100.00
60433;BME280;46286;48.098;11.590;2023-04-09T11:49:38;96139.91;;;9.13;100.00
60433;BME280;46286;48.098;11.590;2023-04-09T11:52:03;96139.84;;;9.08;100.00
60433;BME280;46286;48.098;11.590;2023-04-09T11:54:33;96145.88;;;8.87;100.00
60433;BME280;46286;48.098;11.590;2023-04-09T11:56:59;96153.31;;;8.95;97.21
60433;BME280;46286;48.098;11.590;2023-04-09T11:59:26;96153.19;;;8.84;95.20
60433;BME280;46286;48.098;11.590;2023-04-09T12:01:52;96155.59;;;8.69;100.00
60433;BME280;46286;48.098;11.590;2023-04-09T12:04:21;96152.19;;;8.52;99.43
60433;BME280;46286;48.098;11.590;2023-04-09T12:06:47;96149.31;;;8.53;100.00
60433;BME280;46286;48.098;11.590;2023-04-09T12:09:13;96152.41;;;8.67;100.00
60433;BME280;46286;48.098;11.590;2023-04-09T12:11:42;96153.03;;;8.74;100.00
60433;BME280;46286;48.098;11.590;2023-04-09T12:14:15;96154.69;;;9.19;96.12
60433;BME280;46286;48.098;11.590;2023-04-09T12:16:41;96153.94;;;9.02;100.00
60433;BME280;46286;48.098;11.590;2023-04-09T12:19:11;96164.31;;;9.36;93.35
60433;BME280;46286;48.098;11.590;2023-04-09T12:21:56;96162.25;;;8.94;100.00
60433;BME280;46286;48.098;11.590;2023-04-09T12:24:23;96155.66;;;8.74;100.00
60433;BME280;46286;48.098;11.590;2023-04-09T12:26:50;96147.44;;;8.88;96.17
60433;BME280;46286;48.098;11.590;2023-04-09T12:29:17;96145.38;;;8.90;97.74
60433;BME280;46286;48.098;11.590;2023-04-09T12:31:43;96147.06;;;8.79;100.00
60433;BME280;46286;48.098;11.590;2023-04-09T12:34:09;96149.38;;;9.14;99.63
60433;BME280;46286;48.098;11.590;2023-04-09T12:36:35;96149.38;;;8.92;96.30
60433;BME280;46286;48.098;11.590;2023-04-09T12:39:00;96147.78;;;9.13;99.91
60433;BME280;46286;48.098;11.590;2023-04-09T12:41:26;96146.72;;;9.59;100.00
60433;BME280;46286;48.098;11.590;2023-04-09T12:43:52;96148.56;;;10.45;86.58
60433;BME280;46286;48.098;11.590;2023-04-09T12:46:18;96154.22;;;10.32;87.59
60433;BME280;46286;48.098;11.590;2023-04-09T12:48:45;96146.06;;;11.14;86.24
60433;BME280;46286;48.098;11.590;2023-04-09T12:51:11;96142.84;;;10.58;82.84
60433;BME280;46286;48.098;11.590;2023-04-09T12:53:37;96140.91;;;9.57;89.40
60433;BME280;46286;48.098;11.590;2023-04-09T12:56:02;96145.91;;;9.85;91.76
60433;BME280;46286;48.098;11.590;2023-04-09T12:58:29;96144.59;;;10.15;95.34
60433;BME280;46286;48.098;11.590;2023-04-09T13:00:55;96137.59;;;9.94;94.84